createdAt,value
2023-11-08T00:04:38.013Z,83.38
2023-11-08T00:09:39.805Z,83.26
2023-11-08T00:14:41.435Z,83.46
2023-11-08T00:19:43.349Z,83.89
2023-11-08T00:24:45.115Z,83.85
2023-11-08T00:29:47.899Z,83.91
2023-11-08T00:34:50.380Z,84.57
2023-11-08T00:39:52.090Z,84.80
2023-11-08T00:44:53.668Z,84.54
2023-11-08T00:49:55.197Z,84.72
2023-11-08T00:54:56.722Z,84.81
2023-11-08T00:59:58.674Z,85.46
2023-11-08T01:05:00.362Z,85.53
2023-11-08T01:10:01.947Z,85.59
2023-11-08T01:15:05.083Z,85.31
2023-11-08T01:20:07.992Z,85.90
2023-11-08T01:25:10.346Z,85.69
2023-11-08T01:30:13.420Z,85.23
2023-11-08T01:35:16.078Z,85.42
2023-11-08T01:40:19.630Z,86.36
2023-11-08T01:45:21.426Z,86.98
2023-11-08T01:50:23.203Z,86.43
2023-11-08T01:55:24.860Z,86.34
2023-11-08T02:00:29.765Z,86.42
2023-11-08T02:05:31.349Z,86.69
2023-11-08T02:10:32.910Z,86.95
2023-11-08T02:15:42.964Z,86.54
2023-11-08T02:20:45.422Z,86.61
2023-11-08T02:25:48.070Z,86.64
2023-11-08T02:30:55.506Z,87.10
2023-11-08T02:35:59.961Z,86.73
2023-11-08T02:41:01.835Z,86.59
2023-11-08T02:46:03.639Z,87.11
2023-11-08T02:51:07.386Z,86.71
2023-11-08T02:56:10.128Z,86.41
2023-11-08T03:01:12.098Z,86.32
2023-11-08T03:06:13.688Z,87.46
2023-11-08T03:11:15.336Z,87.53
2023-11-08T03:16:17.747Z,86.93
2023-11-08T03:21:19.439Z,87.82
2023-11-08T03:26:21.670Z,87.72
2023-11-08T03:31:23.259Z,88.00
2023-11-08T03:36:30.267Z,87.71
2023-11-08T03:41:33.366Z,88.36
2023-11-08T03:46:35.626Z,87.74
2023-11-08T03:51:37.233Z,87.87
2023-11-08T03:56:39.490Z,87.52
2023-11-08T04:01:41.061Z,87.46
2023-11-08T04:06:43.651Z,88.20
2023-11-08T04:11:45.304Z,88.06
2023-11-08T04:16:46.834Z,87.71
2023-11-08T04:21:49.625Z,87.54
2023-11-08T04:26:53.232Z,87.75
2023-11-08T04:31:54.745Z,88.62
2023-11-08T04:36:56.383Z,87.77
2023-11-08T04:41:57.986Z,88.39
2023-11-08T04:46:59.521Z,88.14
2023-11-08T04:52:01.956Z,88.32
2023-11-08T04:57:03.603Z,89.55
2023-11-08T05:02:05.412Z,88.45
2023-11-08T05:07:10.100Z,88.69
2023-11-08T05:12:17.044Z,88.81
2023-11-08T05:17:18.803Z,88.71
2023-11-08T05:22:20.409Z,88.90
2023-11-08T05:27:22.055Z,89.63
2023-11-08T05:32:25.624Z,88.85
2023-11-08T05:37:27.368Z,90.07
2023-11-08T05:42:28.966Z,90.04
2023-11-08T05:47:30.635Z,89.59
2023-11-08T05:52:32.921Z,90.48
2023-11-08T05:57:34.585Z,90.84
2023-11-08T06:02:36.642Z,90.50
2023-11-08T06:07:38.350Z,90.16
2023-11-08T06:12:40.937Z,90.97
2023-11-08T06:17:42.837Z,90.69
2023-11-08T06:22:44.393Z,90.67
2023-11-08T06:27:47.914Z,90.17
2023-11-08T06:32:49.545Z,90.35
2023-11-08T06:37:51.067Z,89.68
2023-11-08T06:42:52.798Z,89.59
2023-11-08T06:47:54.522Z,89.66
2023-11-08T06:52:56.488Z,89.43
2023-11-08T06:57:58.213Z,89.62
2023-11-08T07:02:59.965Z,89.31
2023-11-08T07:08:02.917Z,88.81
2023-11-08T07:13:05.694Z,88.79
2023-11-08T07:18:07.394Z,88.33
2023-11-08T07:23:09.801Z,88.45
2023-11-08T07:28:11.447Z,88.18
2023-11-08T07:33:13.841Z,88.25
2023-11-08T07:38:16.307Z,88.15
2023-11-08T07:43:18.239Z,87.85
2023-11-08T07:48:20.077Z,87.86
2023-11-08T07:53:22.713Z,87.42
2023-11-08T07:58:24.450Z,87.32
2023-11-08T08:03:26.161Z,86.92
2023-11-08T08:08:27.708Z,86.67
2023-11-08T08:13:33.050Z,86.29
2023-11-08T08:18:37.263Z,86.37
2023-11-08T08:23:39.646Z,85.93
2023-11-08T08:28:42.719Z,85.49
2023-11-08T08:33:45.670Z,85.62
2023-11-08T08:38:48.630Z,85.17
2023-11-08T08:43:50.180Z,84.68
2023-11-08T08:48:52.596Z,84.79
2023-11-08T08:53:54.671Z,84.47
2023-11-08T08:58:56.220Z,84.27
2023-11-08T09:03:57.935Z,83.95
2023-11-08T09:08:59.622Z,84.35
2023-11-08T09:14:01.220Z,84.09
2023-11-08T09:19:03.315Z,83.59
2023-11-08T09:24:08.144Z,83.11
2023-11-08T09:29:10.038Z,82.60
2023-11-08T09:34:11.877Z,82.40
2023-11-08T09:39:15.105Z,81.99
2023-11-08T09:44:17.806Z,82.03
2023-11-08T09:49:20.146Z,81.62
2023-11-08T09:54:21.913Z,80.98
2023-11-08T09:59:25.889Z,80.55
2023-11-08T10:04:32.500Z,81.09
2023-11-08T10:09:39.399Z,80.67
2023-11-08T10:14:42.283Z,80.55
2023-11-08T10:19:49.146Z,80.19
2023-11-08T10:25:03.553Z,79.82
2023-11-08T10:30:20.097Z,79.13
2023-11-08T10:35:23.156Z,78.69
2023-11-08T10:40:30.368Z,77.99
2023-11-08T10:45:34.525Z,78.55
2023-11-08T10:50:37.314Z,78.11
2023-11-08T10:55:38.946Z,76.68
2023-11-08T11:00:40.965Z,76.82
2023-11-08T11:05:46.743Z,76.13
2023-11-08T11:10:49.153Z,75.88
2023-11-08T11:16:08.862Z,75.95
2023-11-08T11:21:25.781Z,75.44
2023-11-08T11:26:47.449Z,74.48
2023-11-08T11:31:50.390Z,74.17
2023-11-08T11:37:14.761Z,74.87
2023-11-08T11:42:21.833Z,75.89
2023-11-08T11:47:31.628Z,75.21
2023-11-08T11:52:35.430Z,75.57
2023-11-08T11:57:38.196Z,75.67
2023-11-08T12:02:40.026Z,75.32
2023-11-08T12:07:41.907Z,75.00
2023-11-08T12:12:45.463Z,75.33
2023-11-08T12:17:52.245Z,74.63
2023-11-08T12:22:55.489Z,75.14
2023-11-08T12:27:58.251Z,75.20
2023-11-08T12:33:00.486Z,74.30
2023-11-08T12:38:02.362Z,73.24
2023-11-08T12:43:56.905Z,73.80
2023-11-08T12:48:36.816Z,73.47
2023-11-08T12:53:46.882Z,74.33
2023-11-08T12:58:48.466Z,74.20
2023-11-08T13:03:50.074Z,74.51
2023-11-08T13:08:54.616Z,74.96
2023-11-08T13:13:56.197Z,74.87
2023-11-08T13:18:58.014Z,74.33
2023-11-08T13:24:05.387Z,73.66
2023-11-08T13:29:11.191Z,72.95
2023-11-08T13:34:15.934Z,73.04
2023-11-08T13:39:17.630Z,74.00
2023-11-08T13:44:19.475Z,73.27
2023-11-08T13:49:22.638Z,73.98
2023-11-08T13:54:24.387Z,74.32
2023-11-08T13:59:26.352Z,73.80
2023-11-08T14:04:28.071Z,73.61
2023-11-08T14:09:29.828Z,74.38
2023-11-08T14:14:31.408Z,74.23
2023-11-08T14:19:33.107Z,74.28
2023-11-08T14:24:34.845Z,74.43
2023-11-08T14:29:38.939Z,74.73
2023-11-08T14:34:42.787Z,74.93
2023-11-08T14:39:45.217Z,74.85
2023-11-08T14:44:48.644Z,75.08
2023-11-08T14:49:51.588Z,75.23
2023-11-08T14:54:53.322Z,75.39
2023-11-08T14:59:55.282Z,75.55
2023-11-08T15:04:56.983Z,75.72
2023-11-08T15:10:01.698Z,75.69
2023-11-08T15:15:04.551Z,75.69
2023-11-08T15:20:07.966Z,75.94
2023-11-08T15:25:10.349Z,75.77
2023-11-08T15:30:13.029Z,75.52
2023-11-08T15:35:14.714Z,75.64
2023-11-08T15:40:16.420Z,75.69
2023-11-08T15:45:18.035Z,75.81
2023-11-08T15:50:19.598Z,76.33
2023-11-08T15:55:23.500Z,76.70
2023-11-08T16:00:25.264Z,77.34
2023-11-08T16:05:27.666Z,77.61
2023-11-08T16:10:29.605Z,78.40
2023-11-08T16:15:31.197Z,78.47
2023-11-08T16:20:33.101Z,78.89
2023-11-08T16:25:34.670Z,79.02
2023-11-08T16:31:00.436Z,79.00
2023-11-08T16:36:00.547Z,78.99
2023-11-08T16:41:02.192Z,79.48
2023-11-08T16:46:03.877Z,79.77
2023-11-08T16:51:06.551Z,80.51
2023-11-08T16:56:08.173Z,80.93
2023-11-08T17:01:11.276Z,81.45
2023-11-08T17:06:13.029Z,81.05
2023-11-08T17:11:14.679Z,80.83
2023-11-08T17:16:17.102Z,81.08
2023-11-08T17:21:19.735Z,81.36
2023-11-08T17:26:22.037Z,81.57
2023-11-08T17:31:23.765Z,81.59
2023-11-08T17:36:25.373Z,82.16
2023-11-08T17:41:26.938Z,82.18
2023-11-08T17:46:28.534Z,82.38
2023-11-08T17:51:30.391Z,83.04
2023-11-08T17:56:31.988Z,82.88
2023-11-08T18:01:34.758Z,82.85
2023-11-08T18:06:40.142Z,82.42
2023-11-08T18:11:41.893Z,82.84
2023-11-08T18:16:43.509Z,82.89
2023-11-08T18:21:46.899Z,83.53
2023-11-08T18:26:49.579Z,83.71
2023-11-08T18:31:51.204Z,83.51
2023-11-08T18:36:53.125Z,83.75
2023-11-08T18:41:55.237Z,83.43
2023-11-08T18:46:56.824Z,84.08
2023-11-08T18:51:58.456Z,83.57
2023-11-08T18:57:00.292Z,84.00
2023-11-08T19:02:02.105Z,84.44
2023-11-08T19:07:03.941Z,84.05
2023-11-08T19:12:06.656Z,84.50
2023-11-08T19:17:08.265Z,84.71
2023-11-08T19:22:10.801Z,84.49
2023-11-08T19:27:12.464Z,84.90
2023-11-08T19:32:14.987Z,84.77
2023-11-08T19:37:18.760Z,85.26
2023-11-08T19:42:20.368Z,84.93
2023-11-08T19:47:22.875Z,85.28
2023-11-08T19:52:24.457Z,85.17
2023-11-08T19:57:26.085Z,85.72
2023-11-08T20:02:27.920Z,85.78
2023-11-08T20:07:29.458Z,85.82
2023-11-08T20:12:31.206Z,85.55
2023-11-08T20:17:32.929Z,86.09
2023-11-08T20:22:34.647Z,86.74
2023-11-08T20:27:37.688Z,86.58
2023-11-08T20:32:40.672Z,86.56
2023-11-08T20:37:42.369Z,86.96
2023-11-08T20:42:45.261Z,87.17
2023-11-08T20:47:47.117Z,87.34
2023-11-08T20:52:48.869Z,87.28
2023-11-08T20:57:50.726Z,87.34
2023-11-08T21:02:52.274Z,88.44
2023-11-08T21:07:55.849Z,88.17
2023-11-08T21:12:57.521Z,87.70
2023-11-08T21:17:59.059Z,88.54
2023-11-08T21:23:00.679Z,88.15
2023-11-08T21:28:02.262Z,88.27
2023-11-08T21:33:04.508Z,88.88
2023-11-08T21:38:06.115Z,88.35
2023-11-08T21:43:07.765Z,88.46
2023-11-08T21:48:09.889Z,88.18
2023-11-08T21:53:12.236Z,87.80
2023-11-08T21:58:15.562Z,87.67
2023-11-08T22:03:17.953Z,88.01
2023-11-08T22:08:20.143Z,87.53
2023-11-08T22:13:21.794Z,87.59
2023-11-08T22:18:23.366Z,87.91
2023-11-08T22:23:25.228Z,88.29
2023-11-08T22:28:26.815Z,87.82
2023-11-08T22:33:28.420Z,88.07
2023-11-08T22:38:29.943Z,88.61
2023-11-08T22:43:31.583Z,88.63
2023-11-08T22:48:33.710Z,88.43
2023-11-08T22:53:35.359Z,89.15
2023-11-08T22:58:36.908Z,89.25
2023-11-08T23:03:45.524Z,89.25
2023-11-08T23:08:49.280Z,89.49
2023-11-08T23:13:51.854Z,89.59
2023-11-08T23:18:56.951Z,89.92
2023-11-08T23:24:00.160Z,89.56
2023-11-08T23:29:05.091Z,90.91
2023-11-08T23:34:06.997Z,90.90
2023-11-08T23:39:10.283Z,90.89
2023-11-08T23:44:12.751Z,90.91
2023-11-08T23:49:14.379Z,90.75
2023-11-08T23:54:15.992Z,90.93
2023-11-08T23:59:17.759Z,91.20
